CMB829 Details

Departure: Keflavík International Airport (BIKF)
Arrival: Ramstein Air Force Base (ETAR) at N/A
Route: OSKUM2C OSKUM ROSTI G3 MY G11 PEMOS SUM L7 LONAM UL7 SPY UN852 LNO PFF
Notes: USTRANSCOM CONTRACT FLIGHT


Current Weather Information
BIKF 251101Z 12019KT 7000 -RA SCT015 BKN024 OVC045 10/08 Q0999
ETAR 251127Z AUTO 16004KT 9999 CLR 29/16 A3009 RMK AO2 DZB16E17RAB17E26 SLP183 $